Georgetown, Indiana
Current Conditions -  °F | °C
As of 1:56 PM on Tuesday 27 Jan 2015 (Local Time) from KSDF Reporting Station
Overcast Overcast  
Wind Chill: 29°   Ceiling: 4600
Heat Index: 35°   Visibility: 8mi
Dew Point: 23°   Wind: 7mph
Humidity: 61%   Direction: 360°N
Pressure: 30.09"   Gusts: NA
Location:  38.29°N, 85.98°W
Report Text: KSDF 271856Z 36006KT 8SM SCT025 OVC046 02/M05 A3009 RMK AO2 SLP192 T00171050
Loading
Personal Weather Stations






























Interactive Weather Map New forecast layout! Learn more

10-Day Weather Forecast

Advertisements
Track Severe Weather on mobile